createdAt,value
2018-06-15T00:00:42.870Z,16.90
2018-06-15T00:01:42.860Z,16.83
2018-06-15T00:02:42.862Z,16.83
2018-06-15T00:03:42.864Z,16.86
2018-06-15T00:04:43.071Z,16.83
2018-06-15T00:05:43.076Z,16.89
2018-06-15T00:06:42.877Z,16.83
2018-06-15T00:07:43.080Z,16.79
2018-06-15T00:08:42.890Z,16.84
2018-06-15T00:09:42.884Z,16.86
2018-06-15T00:10:42.889Z,16.87
2018-06-15T00:11:42.888Z,16.84
2018-06-15T00:12:42.891Z,16.84
2018-06-15T00:13:42.896Z,16.90
2018-06-15T00:14:43.111Z,16.86
2018-06-15T00:15:43.112Z,16.84
2018-06-15T00:16:42.906Z,16.74
2018-06-15T00:17:42.907Z,16.72
2018-06-15T00:18:42.908Z,16.72
2018-06-15T00:19:42.907Z,16.78
2018-06-15T00:20:43.115Z,16.65
2018-06-15T00:21:43.118Z,16.72
2018-06-15T00:22:42.927Z,16.65
2018-06-15T00:23:42.932Z,16.60
2018-06-15T00:24:42.924Z,16.64
2018-06-15T00:25:43.141Z,16.61
2018-06-15T00:26:42.928Z,16.57
2018-06-15T00:27:42.930Z,16.60
2018-06-15T00:28:43.134Z,16.66
2018-06-15T00:29:43.136Z,16.60
2018-06-15T00:30:42.935Z,16.64
2018-06-15T00:31:43.143Z,16.58
2018-06-15T00:32:42.942Z,16.57
2018-06-15T00:33:43.159Z,16.57
2018-06-15T00:34:43.152Z,16.56
2018-06-15T00:35:42.959Z,16.56
2018-06-15T00:36:42.954Z,16.60
2018-06-15T00:37:42.968Z,16.50
2018-06-15T00:38:42.967Z,16.50
2018-06-15T00:39:42.958Z,16.50
2018-06-15T00:40:43.172Z,16.54
2018-06-15T00:41:42.964Z,16.56
2018-06-15T00:42:42.966Z,16.58
2018-06-15T00:43:42.968Z,16.53
2018-06-15T00:44:42.980Z,16.54
2018-06-15T00:45:42.977Z,16.53
2018-06-15T00:46:43.189Z,16.49
2018-06-15T00:47:42.986Z,16.51
2018-06-15T00:48:43.181Z,16.60
2018-06-15T00:49:42.984Z,16.51
2018-06-15T00:50:42.993Z,16.42
2018-06-15T00:51:43.187Z,16.43
2018-06-15T00:52:42.988Z,16.53
2018-06-15T00:53:42.992Z,16.49
2018-06-15T00:54:42.991Z,16.41
2018-06-15T00:55:43.198Z,16.42
2018-06-15T00:56:42.996Z,16.46
2018-06-15T00:57:43.015Z,16.39
2018-06-15T00:58:43.001Z,16.38
2018-06-15T00:59:43.215Z,16.47
2018-06-15T01:00:43.005Z,16.51
2018-06-15T01:01:43.008Z,16.38
2018-06-15T01:02:43.021Z,16.41
2018-06-15T01:03:43.012Z,16.43
2018-06-15T01:04:43.019Z,16.39
2018-06-15T01:05:43.018Z,16.39
2018-06-15T01:06:43.021Z,16.36
2018-06-15T01:07:43.033Z,16.41
2018-06-15T01:08:43.034Z,16.43
2018-06-15T01:09:43.061Z,16.41
2018-06-15T01:10:43.027Z,16.49
2018-06-15T01:11:43.034Z,16.53
2018-06-15T01:12:43.034Z,16.47
2018-06-15T01:13:43.038Z,16.53
2018-06-15T01:14:43.243Z,16.54
2018-06-15T01:15:43.252Z,16.53
2018-06-15T01:16:43.246Z,16.51
2018-06-15T01:17:43.055Z,16.57
2018-06-15T01:18:43.060Z,16.64
2018-06-15T01:19:43.049Z,16.58
2018-06-15T01:20:43.145Z,16.65
2018-06-15T01:21:43.257Z,16.53
2018-06-15T01:22:43.058Z,16.57
2018-06-15T01:23:43.261Z,16.60
2018-06-15T01:24:43.063Z,16.64
2018-06-15T01:25:43.064Z,16.74
2018-06-15T01:26:43.064Z,16.72
2018-06-15T01:27:43.068Z,16.66
2018-06-15T01:28:43.275Z,16.71
2018-06-15T01:29:43.077Z,16.69
2018-06-15T01:30:43.280Z,16.72
2018-06-15T01:31:43.079Z,16.76
2018-06-15T01:32:43.081Z,16.65
2018-06-15T01:33:43.092Z,16.69
2018-06-15T01:34:43.085Z,16.64
2018-06-15T01:35:43.102Z,16.61
2018-06-15T01:36:43.102Z,16.60
2018-06-15T01:37:43.121Z,16.65
2018-06-15T01:38:43.098Z,16.58
2018-06-15T01:39:43.101Z,16.61
2018-06-15T01:40:43.315Z,16.65
2018-06-15T01:41:43.105Z,16.65
2018-06-15T01:42:43.106Z,16.66
2018-06-15T01:43:43.313Z,16.64
2018-06-15T01:44:43.109Z,16.65
2018-06-15T01:45:43.114Z,16.79
2018-06-15T01:46:43.116Z,16.75
2018-06-15T01:47:43.321Z,16.74
2018-06-15T01:48:43.132Z,16.79
2018-06-15T01:49:43.123Z,16.76
2018-06-15T01:50:43.339Z,16.71
2018-06-15T01:51:43.345Z,16.68
2018-06-15T01:52:43.338Z,16.71
2018-06-15T01:53:43.132Z,16.72
2018-06-15T01:54:43.350Z,16.69
2018-06-15T01:55:43.138Z,16.75
2018-06-15T01:56:43.155Z,16.74
2018-06-15T01:57:43.157Z,16.72
2018-06-15T01:58:43.359Z,16.76
2018-06-15T01:59:43.148Z,16.66
2018-06-15T02:00:43.165Z,16.66
2018-06-15T02:01:43.367Z,16.65
2018-06-15T02:02:43.156Z,16.56
2018-06-15T02:03:43.187Z,16.66
2018-06-15T02:04:43.362Z,16.61
2018-06-15T02:05:43.168Z,16.66
2018-06-15T02:06:43.178Z,16.58
2018-06-15T02:07:43.428Z,16.58
2018-06-15T02:08:43.173Z,16.64
2018-06-15T02:09:43.176Z,16.64
2018-06-15T02:10:43.179Z,16.61
2018-06-15T02:11:43.179Z,16.60
2018-06-15T02:12:43.182Z,16.65
2018-06-15T02:13:43.195Z,16.60
2018-06-15T02:14:43.187Z,16.66
2018-06-15T02:15:43.201Z,16.65
2018-06-15T02:16:43.192Z,16.61
2018-06-15T02:17:43.212Z,16.58
2018-06-15T02:18:43.197Z,16.58
2018-06-15T02:19:43.202Z,16.61
2018-06-15T02:20:43.214Z,16.61
2018-06-15T02:21:43.210Z,16.60
2018-06-15T02:22:43.409Z,16.65
2018-06-15T02:23:43.207Z,16.58
2018-06-15T02:24:43.226Z,16.64
2018-06-15T02:25:43.215Z,16.58
2018-06-15T02:26:43.225Z,16.61
2018-06-15T02:27:43.220Z,16.71
2018-06-15T02:28:43.232Z,16.56
2018-06-15T02:29:43.427Z,16.61
2018-06-15T02:30:43.428Z,16.64
2018-06-15T02:31:43.238Z,16.71
2018-06-15T02:32:43.249Z,16.71
2018-06-15T02:33:43.451Z,16.66
2018-06-15T02:34:43.238Z,16.74
2018-06-15T02:35:43.238Z,16.75
2018-06-15T02:36:43.242Z,16.72
2018-06-15T02:37:43.245Z,16.72
2018-06-15T02:38:43.256Z,16.71
2018-06-15T02:39:43.250Z,16.74
2018-06-15T02:40:43.266Z,16.76
2018-06-15T02:41:43.264Z,16.76
2018-06-15T02:42:43.269Z,16.78
2018-06-15T02:43:43.464Z,16.76
2018-06-15T02:44:43.263Z,16.75
2018-06-15T02:45:43.269Z,16.69
2018-06-15T02:46:43.469Z,16.61
2018-06-15T02:47:43.471Z,16.61
2018-06-15T02:48:43.281Z,16.60
2018-06-15T02:49:43.479Z,16.75
2018-06-15T02:50:43.277Z,16.68
2018-06-15T02:51:43.285Z,16.57
2018-06-15T02:52:43.482Z,16.66
2018-06-15T02:53:43.296Z,16.60
2018-06-15T02:54:43.286Z,16.64
2018-06-15T02:55:43.293Z,16.64
2018-06-15T02:56:43.293Z,16.58
2018-06-15T02:57:43.295Z,16.61
2018-06-15T02:58:43.296Z,16.60
2018-06-15T02:59:43.304Z,16.57
2018-06-15T03:00:43.302Z,16.57
2018-06-15T03:01:43.304Z,16.64
2018-06-15T03:02:43.318Z,16.60
2018-06-15T03:03:43.314Z,16.56
2018-06-15T03:04:43.515Z,16.61
2018-06-15T03:05:43.316Z,16.56
2018-06-15T03:06:43.316Z,16.57
2018-06-15T03:07:43.317Z,16.53
2018-06-15T03:08:43.527Z,16.60
2018-06-15T03:09:43.322Z,16.64
2018-06-15T03:10:43.337Z,16.61
2018-06-15T03:11:43.531Z,16.58
2018-06-15T03:12:43.331Z,16.58
2018-06-15T03:13:43.541Z,16.61
2018-06-15T03:14:43.336Z,16.58
2018-06-15T03:15:43.339Z,16.71
2018-06-15T03:16:43.343Z,16.61
2018-06-15T03:17:43.345Z,16.65
2018-06-15T03:18:43.344Z,16.69
2018-06-15T03:19:43.359Z,16.71
2018-06-15T03:20:43.353Z,16.57
2018-06-15T03:21:43.355Z,16.65
2018-06-15T03:22:43.356Z,16.76
2018-06-15T03:23:43.360Z,16.76
2018-06-15T03:24:43.361Z,16.74
2018-06-15T03:25:43.362Z,16.75
2018-06-15T03:26:43.370Z,16.79
2018-06-15T03:27:43.370Z,16.79
2018-06-15T03:28:43.370Z,16.79
2018-06-15T03:29:43.373Z,16.69
2018-06-15T03:30:43.386Z,16.74
2018-06-15T03:31:43.387Z,16.71
2018-06-15T03:32:43.380Z,16.71
2018-06-15T03:33:43.394Z,16.69
2018-06-15T03:34:43.389Z,16.66
2018-06-15T03:35:43.387Z,16.75
2018-06-15T03:36:43.392Z,16.58
2018-06-15T03:37:43.394Z,16.68
2018-06-15T03:38:43.397Z,16.64
2018-06-15T03:39:43.399Z,16.61
2018-06-15T03:40:43.402Z,16.61
2018-06-15T03:41:43.402Z,16.65
2018-06-15T03:42:43.403Z,16.65
2018-06-15T03:43:43.412Z,16.66
2018-06-15T03:44:43.440Z,16.71
2018-06-15T03:45:43.413Z,16.76
2018-06-15T03:46:43.426Z,16.76
2018-06-15T03:47:43.417Z,16.75
2018-06-15T03:48:43.421Z,16.76
2018-06-15T03:49:43.423Z,16.71
2018-06-15T03:50:43.428Z,16.79
2018-06-15T03:51:43.439Z,16.75
2018-06-15T03:52:43.631Z,16.66
2018-06-15T03:53:43.445Z,16.72
2018-06-15T03:54:43.435Z,16.74
2018-06-15T03:55:43.663Z,16.75
2018-06-15T03:56:43.444Z,16.75
2018-06-15T03:57:43.663Z,16.76
2018-06-15T03:58:43.454Z,16.84
2018-06-15T03:59:43.667Z,16.81
2018-06-15T04:00:43.455Z,16.78
2018-06-15T04:01:43.473Z,16.72
2018-06-15T04:02:43.659Z,16.75
2018-06-15T04:03:43.457Z,16.86
2018-06-15T04:04:43.474Z,16.76
2018-06-15T04:05:43.462Z,16.83
2018-06-15T04:06:43.465Z,16.86
2018-06-15T04:07:43.535Z,16.71
2018-06-15T04:08:43.690Z,16.79
2018-06-15T04:09:43.473Z,16.75
2018-06-15T04:10:43.476Z,16.71
2018-06-15T04:11:43.492Z,16.66
2018-06-15T04:12:43.682Z,16.71
2018-06-15T04:13:43.487Z,16.61
2018-06-15T04:14:43.687Z,16.61
2018-06-15T04:15:43.489Z,16.61
2018-06-15T04:16:43.489Z,16.58
2018-06-15T04:17:43.505Z,16.61
2018-06-15T04:18:43.496Z,16.58
2018-06-15T04:19:43.541Z,16.60
2018-06-15T04:20:43.525Z,16.72
2018-06-15T04:21:43.506Z,16.68
2018-06-15T04:22:43.506Z,16.72
2018-06-15T04:23:43.541Z,16.75
2018-06-15T04:24:43.513Z,16.75
2018-06-15T04:25:43.531Z,16.79
2018-06-15T04:26:43.513Z,16.76
2018-06-15T04:27:43.520Z,16.76
2018-06-15T04:28:43.521Z,16.75
2018-06-15T04:29:43.523Z,16.78
2018-06-15T04:30:43.524Z,16.79
2018-06-15T04:31:43.527Z,16.79
2018-06-15T04:32:43.535Z,16.71
2018-06-15T04:33:43.548Z,16.78
2018-06-15T04:34:43.562Z,16.75
2018-06-15T04:35:43.561Z,16.83
2018-06-15T04:36:43.551Z,16.78
2018-06-15T04:37:43.549Z,16.78
2018-06-15T04:38:43.567Z,16.87
2018-06-15T04:39:43.574Z,16.84
2018-06-15T04:40:43.567Z,16.83
2018-06-15T04:41:43.564Z,16.94
2018-06-15T04:42:43.559Z,16.93
2018-06-15T04:43:43.580Z,16.97
2018-06-15T04:44:43.574Z,17.05
2018-06-15T04:45:43.581Z,16.99
2018-06-15T04:46:43.570Z,16.97
2018-06-15T04:47:43.573Z,17.02
2018-06-15T04:48:43.583Z,16.94
2018-06-15T04:49:43.576Z,16.96
2018-06-15T04:50:43.576Z,16.99
2018-06-15T04:51:43.580Z,16.96
2018-06-15T04:52:43.592Z,16.89
2018-06-15T04:53:43.629Z,17.08
2018-06-15T04:54:43.620Z,16.99
2018-06-15T04:55:43.618Z,16.99
2018-06-15T04:56:43.592Z,17.04
2018-06-15T04:57:43.594Z,16.94
2018-06-15T04:58:43.609Z,17.01
2018-06-15T04:59:43.620Z,16.97
2018-06-15T05:00:43.622Z,17.02
2018-06-15T05:01:43.606Z,16.99
2018-06-15T05:02:43.656Z,17.11
2018-06-15T05:03:43.709Z,17.16
2018-06-15T05:04:43.619Z,17.04
2018-06-15T05:05:43.843Z,17.11
2018-06-15T05:06:43.647Z,17.14
2018-06-15T05:07:43.636Z,17.16
2018-06-15T05:08:43.642Z,17.19
2018-06-15T05:09:43.639Z,17.16
2018-06-15T05:10:43.643Z,17.23
2018-06-15T05:11:43.683Z,17.16
2018-06-15T05:12:43.703Z,17.20
2018-06-15T05:13:43.647Z,17.14
2018-06-15T05:14:43.647Z,17.09
2018-06-15T05:15:43.849Z,17.09
2018-06-15T05:16:43.662Z,17.01
2018-06-15T05:17:43.654Z,17.05
2018-06-15T05:18:43.655Z,17.09
2018-06-15T05:19:43.657Z,17.05
2018-06-15T05:20:43.661Z,17.11
2018-06-15T05:21:43.686Z,17.16
2018-06-15T05:22:43.690Z,17.06
2018-06-15T05:23:43.677Z,17.06
2018-06-15T05:24:43.872Z,17.06
2018-06-15T05:25:43.890Z,17.14
2018-06-15T05:26:43.677Z,17.11
2018-06-15T05:27:43.679Z,17.12
2018-06-15T05:28:43.680Z,17.11
2018-06-15T05:29:43.891Z,17.16
2018-06-15T05:30:43.696Z,17.19
2018-06-15T05:31:43.699Z,17.24
2018-06-15T05:32:43.708Z,17.24
2018-06-15T05:33:43.705Z,17.27
2018-06-15T05:34:43.725Z,17.24
2018-06-15T05:35:43.703Z,17.20
2018-06-15T05:36:43.702Z,17.22
2018-06-15T05:37:43.713Z,17.23
2018-06-15T05:38:43.710Z,17.16
2018-06-15T05:39:43.723Z,17.15
2018-06-15T05:40:43.915Z,17.24
2018-06-15T05:41:43.727Z,17.23
2018-06-15T05:42:43.768Z,17.16
2018-06-15T05:43:43.733Z,17.23
2018-06-15T05:44:43.739Z,17.23
2018-06-15T05:45:43.738Z,17.23
2018-06-15T05:46:43.739Z,17.24
2018-06-15T05:47:43.956Z,17.24
2018-06-15T05:48:43.747Z,17.26
2018-06-15T05:49:43.742Z,17.29
2018-06-15T05:50:43.741Z,17.29
2018-06-15T05:51:43.756Z,17.31
2018-06-15T05:52:43.759Z,17.36
2018-06-15T05:53:43.751Z,17.36
2018-06-15T05:54:43.953Z,17.27
2018-06-15T05:55:43.806Z,17.33
2018-06-15T05:56:43.781Z,17.30
2018-06-15T05:57:43.785Z,17.27
2018-06-15T05:58:43.991Z,17.29
2018-06-15T05:59:43.762Z,17.26
2018-06-15T06:00:43.773Z,17.27
2018-06-15T06:01:43.785Z,17.29
2018-06-15T06:02:43.778Z,17.29
2018-06-15T06:03:43.776Z,17.31
2018-06-15T06:04:43.788Z,17.34
2018-06-15T06:05:43.784Z,17.36
2018-06-15T06:06:43.797Z,17.38
2018-06-15T06:07:43.789Z,17.42
2018-06-15T06:08:43.789Z,17.36
2018-06-15T06:09:43.805Z,17.34
2018-06-15T06:10:44.009Z,17.56
2018-06-15T06:11:43.802Z,17.51
2018-06-15T06:12:43.814Z,17.56
2018-06-15T06:13:43.807Z,17.52
2018-06-15T06:14:43.807Z,17.52
2018-06-15T06:15:43.817Z,17.49
2018-06-15T06:16:43.816Z,17.56
2018-06-15T06:17:43.852Z,17.65
2018-06-15T06:18:43.830Z,17.57
2018-06-15T06:19:43.880Z,17.63
2018-06-15T06:20:43.830Z,17.64
2018-06-15T06:21:43.840Z,17.67
2018-06-15T06:22:43.847Z,17.63
2018-06-15T06:23:43.837Z,17.68
2018-06-15T06:24:43.838Z,17.74
2018-06-15T06:25:44.044Z,17.74
2018-06-15T06:26:43.890Z,17.65
2018-06-15T06:27:43.849Z,17.70
2018-06-15T06:28:43.862Z,17.72
2018-06-15T06:29:43.855Z,17.71
2018-06-15T06:30:43.879Z,17.72
2018-06-15T06:31:44.062Z,17.74
2018-06-15T06:32:43.890Z,17.78
2018-06-15T06:33:43.880Z,17.79
2018-06-15T06:34:43.897Z,17.74
2018-06-15T06:35:44.072Z,17.79
2018-06-15T06:36:44.095Z,17.76
2018-06-15T06:37:43.889Z,17.70
2018-06-15T06:38:43.894Z,17.72
2018-06-15T06:39:43.885Z,17.68
2018-06-15T06:40:43.903Z,17.65
2018-06-15T06:41:44.094Z,17.71
2018-06-15T06:42:43.896Z,17.71
2018-06-15T06:43:43.939Z,17.68
2018-06-15T06:44:43.912Z,17.76
2018-06-15T06:45:43.918Z,17.74
2018-06-15T06:46:43.927Z,17.65
2018-06-15T06:47:43.918Z,17.70
2018-06-15T06:48:43.913Z,17.70
2018-06-15T06:49:43.916Z,17.63
2018-06-15T06:50:43.946Z,17.70
2018-06-15T06:51:43.937Z,17.72
2018-06-15T06:52:43.935Z,17.70
2018-06-15T06:53:43.927Z,17.70
2018-06-15T06:54:43.931Z,17.65
2018-06-15T06:55:43.948Z,17.71
2018-06-15T06:56:43.938Z,17.74
2018-06-15T06:57:44.159Z,17.76
2018-06-15T06:58:43.971Z,17.79
2018-06-15T06:59:43.963Z,17.72
2018-06-15T07:00:43.948Z,17.78
2018-06-15T07:01:43.951Z,17.83
2018-06-15T07:02:43.963Z,17.82
2018-06-15T07:03:44.172Z,17.87
2018-06-15T07:04:43.961Z,17.89
2018-06-15T07:05:43.966Z,17.87
2018-06-15T07:06:43.982Z,18.00
2018-06-15T07:07:43.972Z,17.97
2018-06-15T07:08:43.989Z,17.92
2018-06-15T07:09:44.002Z,17.92
2018-06-15T07:10:43.988Z,17.90
2018-06-15T07:11:44.010Z,17.86
2018-06-15T07:12:43.986Z,17.90
2018-06-15T07:13:43.988Z,17.83
2018-06-15T07:14:43.989Z,17.85
2018-06-15T07:15:44.003Z,17.87
2018-06-15T07:16:44.010Z,17.87
2018-06-15T07:17:44.010Z,17.89
2018-06-15T07:18:44.005Z,17.92
2018-06-15T07:19:44.015Z,17.94
2018-06-15T07:20:44.010Z,17.89
2018-06-15T07:21:44.015Z,17.89
2018-06-15T07:22:44.237Z,17.97
2018-06-15T07:23:44.100Z,18.03
2018-06-15T07:24:44.232Z,18.13
2018-06-15T07:25:44.023Z,18.15
2018-06-15T07:26:44.026Z,18.20
2018-06-15T07:27:44.028Z,18.29
2018-06-15T07:28:44.045Z,18.26
2018-06-15T07:29:44.049Z,18.33
2018-06-15T07:30:44.050Z,18.34
2018-06-15T07:31:44.079Z,18.38
2018-06-15T07:32:44.042Z,18.41
2018-06-15T07:33:44.048Z,18.34
2018-06-15T07:34:44.058Z,18.45
2018-06-15T07:35:44.265Z,18.43
2018-06-15T07:36:44.083Z,18.49
2018-06-15T07:37:44.065Z,18.55
2018-06-15T07:38:44.275Z,18.58
2018-06-15T07:39:44.267Z,18.63
2018-06-15T07:40:44.067Z,18.75
2018-06-15T07:41:44.285Z,18.83
2018-06-15T07:42:44.086Z,18.92
2018-06-15T07:43:44.079Z,19.02
2018-06-15T07:44:44.082Z,19.14
2018-06-15T07:45:44.095Z,19.19
2018-06-15T07:46:44.308Z,19.27
2018-06-15T07:47:44.304Z,19.29
2018-06-15T07:48:44.306Z,19.33
2018-06-15T07:49:44.109Z,19.26
2018-06-15T07:50:44.100Z,19.22
2018-06-15T07:51:44.132Z,19.29
2018-06-15T07:52:44.123Z,19.21
2018-06-15T07:53:44.314Z,19.11
2018-06-15T07:54:44.134Z,19.12
2018-06-15T07:55:44.118Z,19.12
2018-06-15T07:56:44.119Z,19.14
2018-06-15T07:57:44.124Z,19.21
2018-06-15T07:58:44.125Z,19.19
2018-06-15T07:59:44.244Z,19.27
2018-06-15T08:00:44.162Z,19.27
2018-06-15T08:01:44.152Z,19.37
2018-06-15T08:02:44.141Z,19.39
2018-06-15T08:03:44.348Z,19.26
2018-06-15T08:04:44.159Z,19.26
2018-06-15T08:05:44.170Z,19.27
2018-06-15T08:06:44.357Z,19.19
2018-06-15T08:07:44.360Z,19.19
2018-06-15T08:08:44.162Z,19.21
2018-06-15T08:09:44.167Z,19.12
2018-06-15T08:10:44.185Z,19.12
2018-06-15T08:11:44.389Z,19.11
2018-06-15T08:12:44.400Z,19.09
2018-06-15T08:13:44.383Z,19.04
2018-06-15T08:14:44.183Z,19.08
2018-06-15T08:15:44.197Z,19.12
2018-06-15T08:16:44.395Z,19.26
2018-06-15T08:17:44.210Z,19.39
2018-06-15T08:18:44.425Z,19.39
2018-06-15T08:19:44.220Z,19.37
2018-06-15T08:20:44.222Z,19.51
2018-06-15T08:21:44.232Z,19.41
2018-06-15T08:22:44.224Z,19.52
2018-06-15T08:23:44.218Z,19.48
2018-06-15T08:24:44.233Z,19.59
2018-06-15T08:25:44.441Z,19.64
2018-06-15T08:26:44.256Z,19.70
2018-06-15T08:27:44.493Z,19.73
2018-06-15T08:28:44.462Z,19.67
2018-06-15T08:29:44.256Z,19.55
2018-06-15T08:30:44.246Z,19.49
2018-06-15T08:31:44.252Z,19.44
2018-06-15T08:32:44.472Z,19.48
2018-06-15T08:33:44.463Z,19.52
2018-06-15T08:34:44.282Z,19.33
2018-06-15T08:35:44.480Z,19.37
2018-06-15T08:36:44.472Z,19.33
2018-06-15T08:37:44.296Z,19.36
2018-06-15T08:38:44.275Z,19.37
2018-06-15T08:39:44.291Z,19.29
2018-06-15T08:40:44.284Z,19.27
2018-06-15T08:41:44.287Z,19.18
2018-06-15T08:42:44.493Z,19.08
2018-06-15T08:43:44.295Z,19.12
2018-06-15T08:44:44.309Z,19.14
2018-06-15T08:45:44.529Z,19.11
2018-06-15T08:46:44.324Z,19.09
2018-06-15T08:47:44.314Z,19.09
2018-06-15T08:48:44.528Z,19.00
2018-06-15T08:49:44.317Z,19.04
2018-06-15T08:50:44.321Z,18.96
2018-06-15T08:51:44.526Z,18.96
2018-06-15T08:52:44.395Z,19.07
2018-06-15T08:53:44.333Z,19.02
2018-06-15T08:54:44.346Z,19.11
2018-06-15T08:55:44.342Z,19.09
2018-06-15T08:56:44.357Z,19.14
2018-06-15T08:57:44.359Z,19.19
2018-06-15T08:58:44.362Z,19.22
2018-06-15T08:59:44.354Z,19.21
2018-06-15T09:00:44.363Z,19.37
2018-06-15T09:01:44.379Z,19.34
2018-06-15T09:02:44.365Z,19.36
2018-06-15T09:03:44.375Z,19.37
2018-06-15T09:04:44.375Z,19.41
2018-06-15T09:05:44.380Z,19.51
2018-06-15T09:06:44.594Z,19.51
2018-06-15T09:07:44.394Z,19.58
2018-06-15T09:08:44.393Z,19.74
2018-06-15T09:09:44.597Z,19.86
2018-06-15T09:10:44.396Z,20.00
2018-06-15T09:11:44.398Z,20.13
2018-06-15T09:12:44.404Z,20.24
2018-06-15T09:13:44.612Z,20.29
2018-06-15T09:14:44.623Z,20.47
2018-06-15T09:15:44.641Z,20.44
2018-06-15T09:16:44.430Z,20.56
2018-06-15T09:17:44.424Z,20.50
2018-06-15T09:18:44.429Z,20.56
2018-06-15T09:19:44.440Z,20.56
2018-06-15T09:20:44.434Z,20.58
2018-06-15T09:21:44.438Z,20.55
2018-06-15T09:22:44.440Z,20.52
2018-06-15T09:23:44.444Z,20.37
2018-06-15T09:24:44.452Z,20.39
2018-06-15T09:25:44.481Z,20.29
2018-06-15T09:26:44.473Z,20.21
2018-06-15T09:27:44.495Z,20.21
2018-06-15T09:28:44.480Z,20.11
2018-06-15T09:29:44.490Z,20.06
2018-06-15T09:30:44.732Z,19.99
2018-06-15T09:31:44.493Z,19.84
2018-06-15T09:32:44.582Z,19.84
2018-06-15T09:33:44.686Z,19.76
2018-06-15T09:34:44.690Z,19.82
2018-06-15T09:35:44.697Z,19.77
2018-06-15T09:36:44.496Z,19.77
2018-06-15T09:37:44.702Z,19.73
2018-06-15T09:38:44.514Z,19.73
2018-06-15T09:39:44.506Z,19.81
2018-06-15T09:40:44.713Z,19.73
2018-06-15T09:41:44.526Z,19.55
2018-06-15T09:42:44.531Z,19.64
2018-06-15T09:43:44.520Z,19.63
2018-06-15T09:44:44.524Z,19.63
2018-06-15T09:45:44.540Z,19.67
2018-06-15T09:46:44.543Z,19.69
2018-06-15T09:47:44.540Z,19.64
2018-06-15T09:48:44.542Z,19.63
2018-06-15T09:49:44.554Z,19.69
2018-06-15T09:50:44.547Z,19.73
2018-06-15T09:51:44.549Z,19.74
2018-06-15T09:52:44.760Z,19.74
2018-06-15T09:53:44.557Z,19.81
2018-06-15T09:54:44.563Z,20.03
2018-06-15T09:55:44.574Z,20.24
2018-06-15T09:56:44.771Z,20.31
2018-06-15T09:57:44.573Z,20.31
2018-06-15T09:58:44.624Z,20.25
2018-06-15T09:59:44.580Z,20.24
2018-06-15T10:00:44.584Z,20.18
2018-06-15T10:01:44.791Z,20.11
2018-06-15T10:02:44.793Z,20.11
2018-06-15T10:03:44.596Z,20.09
2018-06-15T10:04:44.803Z,20.11
2018-06-15T10:05:44.601Z,20.07
2018-06-15T10:06:44.606Z,20.06
2018-06-15T10:07:44.623Z,20.03
2018-06-15T10:08:44.611Z,19.88
2018-06-15T10:09:44.615Z,19.74
2018-06-15T10:10:44.618Z,19.73
2018-06-15T10:11:44.624Z,19.73
2018-06-15T10:12:44.628Z,19.88
2018-06-15T10:13:44.631Z,19.99
2018-06-15T10:14:44.847Z,20.00
2018-06-15T10:15:44.637Z,20.11
2018-06-15T10:16:44.707Z,20.03
2018-06-15T10:17:44.660Z,19.99
2018-06-15T10:18:44.649Z,19.99
2018-06-15T10:19:44.861Z,20.02
2018-06-15T10:20:44.667Z,19.85
2018-06-15T10:21:44.863Z,19.84
2018-06-15T10:22:44.661Z,19.92
2018-06-15T10:23:44.669Z,19.94
2018-06-15T10:24:44.670Z,19.91
2018-06-15T10:25:44.674Z,19.91
2018-06-15T10:26:44.891Z,19.86
2018-06-15T10:27:44.897Z,19.95
2018-06-15T10:28:44.696Z,20.26
2018-06-15T10:29:44.715Z,20.66
2018-06-15T10:30:44.706Z,20.65
2018-06-15T10:31:44.699Z,20.60
2018-06-15T10:32:44.726Z,20.65
2018-06-15T10:33:44.725Z,20.55
2018-06-15T10:34:44.718Z,20.47
2018-06-15T10:35:44.709Z,20.48
2018-06-15T10:36:44.715Z,20.40
2018-06-15T10:37:44.720Z,20.34
2018-06-15T10:38:44.732Z,20.39
2018-06-15T10:39:44.725Z,20.44
2018-06-15T10:40:44.730Z,20.51
2018-06-15T10:41:44.744Z,20.51
2018-06-15T10:42:44.750Z,20.56
2018-06-15T10:43:44.754Z,20.63
2018-06-15T10:44:44.951Z,21.02
2018-06-15T10:45:44.761Z,21.18
2018-06-15T10:46:44.767Z,21.27
2018-06-15T10:47:44.958Z,21.43
2018-06-15T10:48:44.760Z,21.43
2018-06-15T10:49:44.774Z,21.35
2018-06-15T10:50:44.778Z,21.30
2018-06-15T10:51:44.771Z,21.29
2018-06-15T10:52:44.779Z,21.21
2018-06-15T10:53:44.786Z,21.22
2018-06-15T10:54:44.785Z,21.03
2018-06-15T10:55:44.785Z,21.00
2018-06-15T10:56:44.803Z,21.02
2018-06-15T10:57:44.797Z,20.93
2018-06-15T10:58:45.000Z,20.92
2018-06-15T10:59:44.814Z,20.90
2018-06-15T11:00:44.808Z,20.88
2018-06-15T11:01:44.814Z,20.93
2018-06-15T11:02:44.814Z,20.84
2018-06-15T11:03:44.822Z,20.90
2018-06-15T11:04:44.847Z,20.74
2018-06-15T11:05:45.046Z,20.74
2018-06-15T11:06:44.828Z,20.82
2018-06-15T11:07:45.049Z,20.74
2018-06-15T11:08:44.854Z,20.66
2018-06-15T11:09:44.842Z,20.65
2018-06-15T11:10:44.845Z,20.56
2018-06-15T11:11:44.868Z,20.56
2018-06-15T11:12:44.863Z,20.55
2018-06-15T11:13:44.858Z,20.62
2018-06-15T11:14:44.865Z,20.74
2018-06-15T11:15:44.866Z,20.85
2018-06-15T11:16:44.869Z,20.96
2018-06-15T11:17:44.889Z,21.06
2018-06-15T11:18:44.889Z,21.02
2018-06-15T11:19:45.098Z,20.92
2018-06-15T11:20:45.088Z,21.03
2018-06-15T11:21:44.927Z,20.88
2018-06-15T11:22:44.893Z,20.97
2018-06-15T11:23:44.906Z,21.21
2018-06-15T11:24:44.903Z,21.42
2018-06-15T11:25:44.913Z,21.69
2018-06-15T11:26:45.121Z,21.77
2018-06-15T11:27:44.922Z,21.72
2018-06-15T11:28:44.915Z,21.61
2018-06-15T11:29:44.946Z,21.61
2018-06-15T11:30:44.932Z,21.52
2018-06-15T11:31:44.927Z,21.42
2018-06-15T11:32:44.930Z,21.33
2018-06-15T11:33:44.943Z,21.29
2018-06-15T11:34:44.959Z,21.21
2018-06-15T11:35:44.952Z,21.03
2018-06-15T11:36:44.959Z,21.02
2018-06-15T11:37:44.951Z,20.96
2018-06-15T11:38:44.964Z,20.88
2018-06-15T11:39:44.992Z,20.97
2018-06-15T11:40:45.176Z,20.99
2018-06-15T11:41:45.177Z,21.00
2018-06-15T11:42:44.983Z,20.95
2018-06-15T11:43:45.175Z,20.96
2018-06-15T11:44:44.976Z,21.02
2018-06-15T11:45:44.996Z,21.02
2018-06-15T11:46:45.197Z,21.07
2018-06-15T11:47:45.000Z,21.05
2018-06-15T11:48:45.006Z,21.05
2018-06-15T11:49:44.996Z,20.99
2018-06-15T11:50:45.009Z,20.95
2018-06-15T11:51:45.006Z,20.99
2018-06-15T11:52:45.029Z,20.92
2018-06-15T11:53:45.017Z,21.03
2018-06-15T11:54:45.027Z,21.00
2018-06-15T11:55:45.021Z,21.02
2018-06-15T11:56:45.027Z,21.03
2018-06-15T11:57:45.034Z,21.02
2018-06-15T11:58:45.060Z,21.03
2018-06-15T11:59:45.052Z,21.02
2018-06-15T12:00:45.064Z,21.20
2018-06-15T12:01:45.089Z,21.20
2018-06-15T12:02:45.048Z,21.29
2018-06-15T12:03:45.066Z,21.29
2018-06-15T12:04:45.267Z,21.30
2018-06-15T12:05:45.066Z,21.32
2018-06-15T12:06:45.075Z,21.36
2018-06-15T12:07:45.290Z,21.29
2018-06-15T12:08:45.073Z,21.32
2018-06-15T12:09:45.095Z,21.43
2018-06-15T12:10:45.079Z,21.39
2018-06-15T12:11:45.088Z,21.39
2018-06-15T12:12:45.093Z,21.40
2018-06-15T12:13:45.106Z,21.35
2018-06-15T12:14:45.124Z,21.39
2018-06-15T12:15:45.113Z,21.45
2018-06-15T12:16:45.107Z,21.42
2018-06-15T12:17:45.109Z,21.52
2018-06-15T12:18:45.113Z,21.60
2018-06-15T12:19:45.120Z,21.66
2018-06-15T12:20:45.123Z,21.54
2018-06-15T12:21:45.137Z,21.52
2018-06-15T12:22:45.145Z,21.57
2018-06-15T12:23:45.148Z,21.54
2018-06-15T12:24:45.139Z,21.62
2018-06-15T12:25:45.143Z,21.52
2018-06-15T12:26:45.160Z,21.51
2018-06-15T12:27:45.164Z,21.42
2018-06-15T12:28:45.157Z,21.39
2018-06-15T12:29:45.163Z,21.36
2018-06-15T12:30:45.162Z,21.30
2018-06-15T12:31:45.169Z,21.29
2018-06-15T12:32:45.205Z,21.20
2018-06-15T12:33:45.186Z,21.18
2018-06-15T12:34:45.179Z,21.20
2018-06-15T12:35:45.189Z,21.17
2018-06-15T12:36:45.213Z,21.24
2018-06-15T12:37:45.203Z,21.25
2018-06-15T12:38:45.210Z,21.24
2018-06-15T12:39:45.201Z,21.30
2018-06-15T12:40:45.221Z,21.27
2018-06-15T12:41:45.218Z,21.32
2018-06-15T12:42:45.225Z,21.32
2018-06-15T12:43:45.217Z,21.36
2018-06-15T12:44:45.222Z,21.54
2018-06-15T12:45:45.247Z,21.61
2018-06-15T12:46:45.232Z,21.72
2018-06-15T12:47:45.232Z,21.73
2018-06-15T12:48:45.262Z,21.72
2018-06-15T12:49:45.252Z,21.73
2018-06-15T12:50:45.256Z,21.75
2018-06-15T12:51:45.250Z,21.66
2018-06-15T12:52:45.471Z,21.66